Time;durP1;ratioP1;P1;durP2;ratioP2;P2;SDS_P1;SDS_P2;PMS_P1;PMS_P2;Temp;Humidity;BMP_temperature;BMP_pressure;BME280_temperature;BME280_humidity;BME280_pressure;Samples;Min_cycle;Max_cycle;Signal;HPM_P1;HPM_P2
2023/04/16 00:01:15;;;;;;;;;;;8.20;99.90;;;;;;5014490;28;19925;-71
2023/04/16 00:03:41;;;;;;;;;;;8.20;99.90;;;;;;5013221;28;20009;-71
2023/04/16 00:06:06;;;;;;;;;;;8.20;99.90;;;;;;4995474;28;20351;-70
2023/04/16 00:08:32;;;;;;;;;;;8.20;99.90;;;;;;5023335;28;19926;-70
2023/04/16 00:10:57;;;;;;;;;;;8.20;99.90;;;;;;4994831;28;19926;-71
2023/04/16 00:13:24;;;;;;;;;;;8.10;99.90;;;;;;5008862;28;19933;-70
2023/04/16 00:15:50;;;;;;;;;;;8.10;99.90;;;;;;5012352;28;20025;-71
2023/04/16 00:18:15;;;;;;;;;;;8.10;99.90;;;;;;5008183;28;20012;-71
2023/04/16 00:20:41;;;;;;;;;;;8.10;99.90;;;;;;5013165;28;19926;-70
2023/04/16 00:23:06;;;;;;;;;;;8.20;99.90;;;;;;5014065;28;19932;-69
2023/04/16 00:25:32;;;;;;;;;;;8.10;99.90;;;;;;5013594;28;19932;-70
2023/04/16 00:27:57;;;;;;;;;;;8.10;99.90;;;;;;4998548;28;20402;-71
2023/04/16 00:30:23;;;;;;;;;;;8.10;99.90;;;;;;5011235;28;19925;-70
2023/04/16 00:32:48;;;;;;;;;;;8.10;99.90;;;;;;5013014;28;19926;-70
2023/04/16 00:35:14;;;;;;;;;;;8.10;99.90;;;;;;5013131;28;19929;-69
2023/04/16 00:37:40;;;;;;;;;;;8.00;99.90;;;;;;5011106;28;19925;-71
2023/04/16 00:40:06;;;;;;;;;;;8.20;99.90;;;;;;5012041;28;19932;-69
2023/04/16 00:42:31;;;;;;;;;;;8.00;99.90;;;;;;5003291;28;19925;-70
2023/04/16 00:44:57;;;;;;;;;;;8.00;99.90;;;;;;5006836;28;19925;-70
2023/04/16 00:47:23;;;;;;;;;;;7.90;99.90;;;;;;5009784;28;19926;-70
2023/04/16 00:49:49;;;;;;;;;;;8.00;99.90;;;;;;5011882;28;20462;-70
2023/04/16 00:52:14;;;;;;;;;;;8.00;99.90;;;;;;5008308;28;20322;-72
2023/04/16 00:54:40;;;;;;;;;;;8.00;99.90;;;;;;5005042;28;19926;-70
2023/04/16 00:57:05;;;;;;;;;;;7.90;99.90;;;;;;5011308;28;20402;-70
2023/04/16 00:59:33;;;;;;;;;;;7.90;99.90;;;;;;5005525;28;21497;-70
2023/04/16 01:01:58;;;;;;;;;;;8.00;99.90;;;;;;5012426;28;19972;-70
2023/04/16 01:04:25;;;;;;;;;;;7.90;99.90;;;;;;5009520;28;19935;-70
2023/04/16 01:06:50;;;;;;;;;;;7.90;99.90;;;;;;5012472;28;19926;-71
2023/04/16 01:09:16;;;;;;;;;;;7.90;99.90;;;;;;5009031;28;19925;-70
2023/04/16 01:11:41;;;;;;;;;;;8.00;99.90;;;;;;5013428;28;20342;-70
2023/04/16 01:14:07;;;;;;;;;;;7.90;99.90;;;;;;5010478;28;20341;-70
2023/04/16 01:16:32;;;;;;;;;;;7.90;99.90;;;;;;5012957;28;19952;-69
2023/04/16 01:18:58;;;;;;;;;;;7.90;99.90;;;;;;5012308;28;19964;-70
2023/04/16 01:21:23;;;;;;;;;;;7.90;99.90;;;;;;5013770;28;20363;-70
2023/04/16 01:23:49;;;;;;;;;;;8.00;99.90;;;;;;5003686;28;19936;-70
2023/04/16 01:26:14;;;;;;;;;;;7.90;99.90;;;;;;5013046;28;19925;-70
2023/04/16 01:28:40;;;;;;;;;;;7.80;99.90;;;;;;5012726;28;19925;-69
2023/04/16 01:31:06;;;;;;;;;;;7.90;99.90;;;;;;5008040;28;20004;-69
2023/04/16 01:33:31;;;;;;;;;;;7.90;99.90;;;;;;5011837;28;19981;-69
2023/04/16 01:35:57;;;;;;;;;;;7.90;99.90;;;;;;5004535;28;20355;-70
2023/04/16 01:38:22;;;;;;;;;;;7.90;99.90;;;;;;5009210;28;19930;-70
2023/04/16 01:40:48;;;;;;;;;;;7.80;99.90;;;;;;5012127;28;19969;-70
2023/04/16 01:43:13;;;;;;;;;;;7.90;99.90;;;;;;5001951;28;19937;-70
2023/04/16 01:45:39;;;;;;;;;;;7.90;99.90;;;;;;5004425;28;19925;-71
2023/04/16 01:48:05;;;;;;;;;;;7.90;99.90;;;;;;5002099;28;20360;-71
2023/04/16 01:50:30;;;;;;;;;;;7.80;99.90;;;;;;5002623;28;20020;-71
2023/04/16 01:52:56;;;;;;;;;;;7.90;99.90;;;;;;4996954;28;19956;-71
2023/04/16 01:55:22;;;;;;;;;;;7.80;99.90;;;;;;5002967;28;20602;-71
2023/04/16 01:57:47;;;;;;;;;;;7.90;99.90;;;;;;5003311;28;19925;-71
2023/04/16 02:00:13;;;;;;;;;;;7.90;99.90;;;;;;5003848;28;20387;-71
2023/04/16 02:02:38;;;;;;;;;;;7.80;99.90;;;;;;5003168;28;19929;-70
2023/04/16 02:05:04;;;;;;;;;;;7.90;99.90;;;;;;5002858;28;19929;-71
2023/04/16 02:07:30;;;;;;;;;;;7.90;99.90;;;;;;5000399;28;20013;-71
2023/04/16 02:09:57;;;;;;;;;;;7.90;99.90;;;;;;5000441;28;20359;-70
2023/04/16 02:12:22;;;;;;;;;;;7.90;99.90;;;;;;5003948;28;19936;-70
2023/04/16 02:14:48;;;;;;;;;;;7.90;99.90;;;;;;5005536;28;19926;-70
2023/04/16 02:17:14;;;;;;;;;;;7.90;99.90;;;;;;5005608;28;20035;-71
2023/04/16 02:19:40;;;;;;;;;;;8.00;99.90;;;;;;5006118;28;19932;-70
2023/04/16 02:22:06;;;;;;;;;;;7.90;99.90;;;;;;5010820;28;20291;-70
2023/04/16 02:24:31;;;;;;;;;;;7.90;99.90;;;;;;5009056;28;19925;-70
2023/04/16 02:26:57;;;;;;;;;;;8.00;99.90;;;;;;5010239;28;19925;-70
2023/04/16 02:29:22;;;;;;;;;;;8.10;99.90;;;;;;5005845;28;19933;-70
2023/04/16 02:31:48;;;;;;;;;;;8.00;99.90;;;;;;5004727;28;19926;-70
2023/04/16 02:34:13;;;;;;;;;;;8.10;99.90;;;;;;5008695;28;19926;-71
2023/04/16 02:36:40;;;;;;;;;;;8.10;99.90;;;;;;5010495;28;19926;-71
2023/04/16 02:39:06;;;;;;;;;;;8.00;99.90;;;;;;5008746;28;20019;-71
2023/04/16 02:41:31;;;;;;;;;;;8.10;99.90;;;;;;5006562;28;20376;-70
2023/04/16 02:43:57;;;;;;;;;;;8.10;99.90;;;;;;5008917;28;19992;-70
2023/04/16 02:46:22;;;;;;;;;;;8.00;99.90;;;;;;5007557;28;19932;-70
2023/04/16 02:48:48;;;;;;;;;;;8.10;99.90;;;;;;5011192;28;20024;-70
2023/04/16 02:51:13;;;;;;;;;;;8.20;99.90;;;;;;5003167;28;20017;-71
2023/04/16 02:53:39;;;;;;;;;;;8.00;99.90;;;;;;5009780;28;19965;-70
2023/04/16 02:56:05;;;;;;;;;;;8.10;99.90;;;;;;5013117;28;20296;-70
2023/04/16 02:58:30;;;;;;;;;;;8.10;99.90;;;;;;5011125;28;20402;-70
2023/04/16 03:00:56;;;;;;;;;;;8.10;99.90;;;;;;5008135;28;20284;-71
2023/04/16 03:03:21;;;;;;;;;;;8.00;99.90;;;;;;5007572;28;19933;-70
2023/04/16 03:05:47;;;;;;;;;;;8.00;99.90;;;;;;5003696;28;19940;-70
2023/04/16 03:08:12;;;;;;;;;;;8.00;99.90;;;;;;5006873;28;19926;-70
2023/04/16 03:10:38;;;;;;;;;;;8.00;99.90;;;;;;5004653;28;20382;-70
2023/04/16 03:13:04;;;;;;;;;;;8.00;99.90;;;;;;5009054;28;19961;-70
2023/04/16 03:15:30;;;;;;;;;;;7.90;99.90;;;;;;5022220;28;19945;-70
2023/04/16 03:17:55;;;;;;;;;;;8.00;99.90;;;;;;5011803;28;19932;-70
2023/04/16 03:20:21;;;;;;;;;;;8.00;99.90;;;;;;4999308;28;20276;-69
2023/04/16 03:22:46;;;;;;;;;;;8.00;99.90;;;;;;5004968;28;19926;-70
2023/04/16 03:25:12;;;;;;;;;;;8.20;99.90;;;;;;5006934;28;19926;-70
2023/04/16 03:27:41;;;;;;;;;;;8.00;99.90;;;;;;5007503;28;19926;-70
2023/04/16 03:30:07;;;;;;;;;;;8.00;99.90;;;;;;5014660;28;20016;-70
2023/04/16 03:32:32;;;;;;;;;;;8.00;99.90;;;;;;5001384;28;20334;-70
2023/04/16 03:34:58;;;;;;;;;;;8.00;99.90;;;;;;5010634;28;19941;-70
2023/04/16 03:37:23;;;;;;;;;;;7.90;99.90;;;;;;5009773;28;19991;-69
2023/04/16 03:39:49;;;;;;;;;;;8.00;99.90;;;;;;5008712;28;19925;-72
2023/04/16 03:42:15;;;;;;;;;;;7.90;99.90;;;;;;5003919;28;19925;-71
2023/04/16 03:44:40;;;;;;;;;;;7.90;99.90;;;;;;5004619;28;19925;-70
2023/04/16 03:47:06;;;;;;;;;;;7.90;99.90;;;;;;5004849;28;19933;-70
2023/04/16 03:49:31;;;;;;;;;;;7.90;99.90;;;;;;5003365;28;19940;-70
2023/04/16 03:51:57;;;;;;;;;;;7.80;99.90;;;;;;5004485;28;19926;-70
2023/04/16 03:54:22;;;;;;;;;;;7.90;99.90;;;;;;5004101;28;19925;-70
2023/04/16 03:56:48;;;;;;;;;;;7.80;99.90;;;;;;5002806;28;20319;-70
2023/04/16 03:59:14;;;;;;;;;;;7.80;99.90;;;;;;5003811;28;19936;-70
2023/04/16 04:01:40;;;;;;;;;;;7.80;99.90;;;;;;5003574;28;20379;-70
2023/04/16 04:04:06;;;;;;;;;;;7.90;99.90;;;;;;5007055;28;19925;-70
2023/04/16 04:06:32;;;;;;;;;;;7.80;99.90;;;;;;5004621;28;20315;-70
2023/04/16 04:08:58;;;;;;;;;;;7.80;99.90;;;;;;5004769;28;19933;-71
2023/04/16 04:11:23;;;;;;;;;;;7.80;99.90;;;;;;5005805;28;20328;-70
2023/04/16 04:13:49;;;;;;;;;;;7.80;99.90;;;;;;5006202;28;20052;-70
2023/04/16 04:16:14;;;;;;;;;;;7.80;99.90;;;;;;5007389;28;20461;-70
2023/04/16 04:18:40;;;;;;;;;;;7.80;99.90;;;;;;5012199;28;19964;-70
2023/04/16 04:21:06;;;;;;;;;;;7.80;99.90;;;;;;5012032;28;20406;-70
2023/04/16 04:23:31;;;;;;;;;;;7.80;99.90;;;;;;5009327;28;20068;-70
2023/04/16 04:25:58;;;;;;;;;;;7.80;99.90;;;;;;5011432;28;20007;-70
2023/04/16 04:28:23;;;;;;;;;;;7.70;99.90;;;;;;5014028;28;19926;-70
2023/04/16 04:30:49;;;;;;;;;;;7.70;99.90;;;;;;5011413;28;19961;-70
2023/04/16 04:33:14;;;;;;;;;;;7.70;99.90;;;;;;5007976;28;19929;-70
2023/04/16 04:35:40;;;;;;;;;;;7.70;99.90;;;;;;4987933;28;19933;-70
2023/04/16 04:38:05;;;;;;;;;;;7.70;99.90;;;;;;5005012;28;21651;-70
2023/04/16 04:40:31;;;;;;;;;;;7.70;99.90;;;;;;5000027;28;19988;-69
2023/04/16 04:42:57;;;;;;;;;;;7.70;99.90;;;;;;5004173;28;19926;-70
2023/04/16 04:45:25;;;;;;;;;;;7.70;99.90;;;;;;5004028;28;20142;-70
2023/04/16 04:47:54;;;;;;;;;;;7.70;99.90;;;;;;5002553;28;19925;-70
2023/04/16 04:50:20;;;;;;;;;;;7.80;99.90;;;;;;5003846;28;20299;-70
2023/04/16 04:52:45;;;;;;;;;;;7.70;99.90;;;;;;5004916;28;19948;-70
2023/04/16 04:55:12;;;;;;;;;;;7.70;99.90;;;;;;5004304;28;20299;-71
2023/04/16 04:57:38;;;;;;;;;;;7.80;99.90;;;;;;5004536;28;19933;-70
2023/04/16 05:00:04;;;;;;;;;;;7.70;99.90;;;;;;5002127;28;19926;-70
2023/04/16 05:02:30;;;;;;;;;;;7.70;99.90;;;;;;5002948;28;19926;-70
2023/04/16 05:04:55;;;;;;;;;;;7.70;99.90;;;;;;5001532;28;20008;-70
2023/04/16 05:07:21;;;;;;;;;;;7.80;99.90;;;;;;5004732;28;19929;-71
2023/04/16 05:09:46;;;;;;;;;;;7.70;99.90;;;;;;5005461;28;19929;-70
2023/04/16 05:12:12;;;;;;;;;;;7.70;99.90;;;;;;5003842;28;20303;-70
2023/04/16 05:14:37;;;;;;;;;;;7.70;99.90;;;;;;5004926;28;19929;-70
2023/04/16 05:17:03;;;;;;;;;;;7.70;99.90;;;;;;5003899;28;19968;-70
2023/04/16 05:19:28;;;;;;;;;;;7.70;99.90;;;;;;5005483;28;20294;-70
2023/04/16 05:21:54;;;;;;;;;;;7.70;99.90;;;;;;5002162;28;19934;-70
2023/04/16 05:24:19;;;;;;;;;;;7.80;99.90;;;;;;5002309;28;19926;-70
2023/04/16 05:26:45;;;;;;;;;;;7.80;99.90;;;;;;5016026;28;19930;-70
2023/04/16 05:29:10;;;;;;;;;;;7.80;99.90;;;;;;5000633;28;19926;-70
2023/04/16 05:31:36;;;;;;;;;;;7.80;99.90;;;;;;5003234;28;20363;-70
2023/04/16 05:34:01;;;;;;;;;;;7.80;99.90;;;;;;5004781;28;19980;-70
2023/04/16 05:36:27;;;;;;;;;;;7.80;99.90;;;;;;5009652;28;19980;-70
2023/04/16 05:38:52;;;;;;;;;;;7.80;99.90;;;;;;5008227;28;20013;-70
2023/04/16 05:41:18;;;;;;;;;;;7.80;99.90;;;;;;5003326;28;19940;-70
2023/04/16 05:43:43;;;;;;;;;;;7.80;99.90;;;;;;5004705;28;19926;-70
2023/04/16 05:46:09;;;;;;;;;;;7.80;99.90;;;;;;5003037;28;20035;-70
2023/04/16 05:48:35;;;;;;;;;;;7.80;99.90;;;;;;5002630;28;19925;-71
2023/04/16 05:51:01;;;;;;;;;;;7.70;99.90;;;;;;5002806;28;19939;-70
2023/04/16 05:53:27;;;;;;;;;;;7.80;99.90;;;;;;5003541;28;20019;-70
2023/04/16 05:55:52;;;;;;;;;;;7.90;99.90;;;;;;5001428;28;20363;-70
2023/04/16 05:58:18;;;;;;;;;;;7.90;99.90;;;;;;5005958;28;19941;-71
2023/04/16 06:00:43;;;;;;;;;;;7.90;99.90;;;;;;5005995;28;20342;-70
2023/04/16 06:03:09;;;;;;;;;;;7.90;99.90;;;;;;5009312;28;19980;-70
2023/04/16 06:05:34;;;;;;;;;;;7.90;99.90;;;;;;5002663;28;20431;-70
2023/04/16 06:08:00;;;;;;;;;;;8.00;99.90;;;;;;5003384;28;19929;-71
2023/04/16 06:10:25;;;;;;;;;;;8.70;99.90;;;;;;5008120;28;19925;-71
2023/04/16 06:12:51;;;;;;;;;;;8.00;99.90;;;;;;5005564;28;19925;-70
2023/04/16 06:15:17;;;;;;;;;;;8.00;99.90;;;;;;5004363;28;19996;-70
2023/04/16 06:17:42;;;;;;;;;;;8.10;99.90;;;;;;5007630;28;19976;-71
2023/04/16 06:20:08;;;;;;;;;;;8.10;99.90;;;;;;5013147;28;19926;-70
2023/04/16 06:22:33;;;;;;;;;;;8.20;99.90;;;;;;4988555;28;19932;-71
2023/04/16 06:24:59;;;;;;;;;;;8.20;99.90;;;;;;5012743;28;19961;-69
2023/04/16 06:27:25;;;;;;;;;;;8.20;99.90;;;;;;4995059;28;19933;-70
2023/04/16 06:29:51;;;;;;;;;;;8.20;99.90;;;;;;5014619;28;19925;-70
2023/04/16 06:32:17;;;;;;;;;;;8.20;99.90;;;;;;5012416;28;19995;-71
2023/04/16 06:34:42;;;;;;;;;;;8.30;99.90;;;;;;5014331;28;20363;-70
2023/04/16 06:37:08;;;;;;;;;;;8.50;99.90;;;;;;5012408;28;20267;-71
2023/04/16 06:39:33;;;;;;;;;;;8.40;99.90;;;;;;5013363;28;19926;-71
2023/04/16 06:42:00;;;;;;;;;;;8.60;99.90;;;;;;5010585;28;20311;-70
2023/04/16 06:44:25;;;;;;;;;;;8.60;99.90;;;;;;5010667;28;19940;-70
2023/04/16 06:46:51;;;;;;;;;;;8.70;99.90;;;;;;5007137;28;19925;-71
2023/04/16 06:49:16;;;;;;;;;;;8.70;99.90;;;;;;5010605;28;19925;-70
2023/04/16 06:51:42;;;;;;;;;;;8.80;99.90;;;;;;5001354;28;19987;-70
2023/04/16 06:54:07;;;;;;;;;;;8.90;99.90;;;;;;5012068;28;19926;-71
2023/04/16 06:56:33;;;;;;;;;;;8.90;99.90;;;;;;5008936;28;19926;-70
2023/04/16 06:58:59;;;;;;;;;;;8.90;99.90;;;;;;5009487;28;20255;-73
2023/04/16 07:01:25;;;;;;;;;;;9.00;99.90;;;;;;5011549;28;19925;-70
2023/04/16 07:03:51;;;;;;;;;;;9.00;99.90;;;;;;5012667;28;19932;-70
2023/04/16 07:06:16;;;;;;;;;;;9.10;99.90;;;;;;5010977;28;19925;-70
2023/04/16 07:08:42;;;;;;;;;;;9.20;99.90;;;;;;5015776;28;19932;-70
2023/04/16 07:11:07;;;;;;;;;;;9.30;99.90;;;;;;5005214;28;20284;-70
2023/04/16 07:13:32;;;;;;;;;;;9.10;99.90;;;;;;5010666;28;19925;-70
2023/04/16 07:15:58;;;;;;;;;;;9.20;99.90;;;;;;5004805;28;19926;-70
2023/04/16 07:18:24;;;;;;;;;;;9.30;99.90;;;;;;4994530;28;19925;-70
2023/04/16 07:20:49;;;;;;;;;;;9.30;99.90;;;;;;5006079;28;19932;-70
2023/04/16 07:23:15;;;;;;;;;;;9.30;99.90;;;;;;5002527;28;20024;-70
2023/04/16 07:25:40;;;;;;;;;;;9.40;99.90;;;;;;5021084;28;19933;-70
2023/04/16 07:28:06;;;;;;;;;;;9.30;99.90;;;;;;5005452;28;19934;-70
2023/04/16 07:30:33;;;;;;;;;;;9.30;99.90;;;;;;5007185;28;19987;-70
2023/04/16 07:33:00;;;;;;;;;;;9.30;99.90;;;;;;5003275;28;20016;-70
2023/04/16 07:35:26;;;;;;;;;;;9.30;99.90;;;;;;5001935;28;20497;-70
2023/04/16 07:37:51;;;;;;;;;;;9.30;99.90;;;;;;5008064;28;20387;-70
2023/04/16 07:40:17;;;;;;;;;;;9.30;99.90;;;;;;5012685;28;19925;-70
2023/04/16 07:42:42;;;;;;;;;;;9.30;99.90;;;;;;5008462;28;20228;-70
2023/04/16 07:45:08;;;;;;;;;;;9.30;99.90;;;;;;5012322;28;19946;-70
2023/04/16 07:47:33;;;;;;;;;;;9.30;99.90;;;;;;5010829;28;19925;-70
2023/04/16 07:49:59;;;;;;;;;;;9.40;99.90;;;;;;5006353;28;19925;-71
2023/04/16 07:52:25;;;;;;;;;;;9.40;99.90;;;;;;5007878;28;20314;-70
2023/04/16 07:54:51;;;;;;;;;;;9.50;99.90;;;;;;5010966;28;20015;-71
2023/04/16 07:57:16;;;;;;;;;;;9.40;99.90;;;;;;5013167;28;20023;-71
2023/04/16 07:59:42;;;;;;;;;;;9.50;99.90;;;;;;5004536;28;20414;-71
2023/04/16 08:02:09;;;;;;;;;;;9.50;99.90;;;;;;5012644;28;20397;-71
2023/04/16 08:04:35;;;;;;;;;;;9.60;99.90;;;;;;5003446;28;19932;-70
2023/04/16 08:07:00;;;;;;;;;;;9.60;99.90;;;;;;5007353;28;19933;-71
2023/04/16 08:09:27;;;;;;;;;;;9.70;99.90;;;;;;5002519;28;20020;-71
2023/04/16 08:11:52;;;;;;;;;;;9.80;99.90;;;;;;5004794;28;20355;-70
2023/04/16 08:14:18;;;;;;;;;;;9.70;99.90;;;;;;5011506;28;20023;-70
2023/04/16 08:16:43;;;;;;;;;;;9.90;99.90;;;;;;5008426;28;19961;-70
2023/04/16 08:19:09;;;;;;;;;;;9.90;99.90;;;;;;4994188;28;19933;-71
2023/04/16 08:21:35;;;;;;;;;;;10.10;99.90;;;;;;5004095;28;20059;-71
2023/04/16 08:24:00;;;;;;;;;;;10.20;99.90;;;;;;5011515;28;19925;-71
2023/04/16 08:26:26;;;;;;;;;;;10.30;99.90;;;;;;5012007;28;19931;-71
2023/04/16 08:28:51;;;;;;;;;;;10.40;99.90;;;;;;5025287;28;19963;-71
2023/04/16 08:31:17;;;;;;;;;;;10.40;99.90;;;;;;5013012;28;19925;-71
2023/04/16 08:33:42;;;;;;;;;;;10.50;99.90;;;;;;5008902;28;19933;-71
2023/04/16 08:36:08;;;;;;;;;;;10.60;99.90;;;;;;5020462;28;19980;-71
2023/04/16 08:38:33;;;;;;;;;;;10.70;99.90;;;;;;5013544;28;19929;-70
2023/04/16 08:41:01;;;;;;;;;;;10.80;99.90;;;;;;5008849;28;19980;-70
2023/04/16 08:43:42;;;;;;;;;;;11.10;99.90;;;;;;5015246;28;19926;-70
2023/04/16 08:46:08;;;;;;;;;;;11.10;99.90;;;;;;5007529;28;20024;-70
2023/04/16 08:48:34;;;;;;;;;;;11.20;99.90;;;;;;5012437;28;19995;-70
2023/04/16 08:51:00;;;;;;;;;;;11.30;99.90;;;;;;5016467;28;19987;-70
2023/04/16 08:53:31;;;;;;;;;;;11.30;99.90;;;;;;5006261;28;19925;-70
2023/04/16 08:55:58;;;;;;;;;;;11.40;99.90;;;;;;5001061;28;19937;-70
2023/04/16 08:58:27;;;;;;;;;;;11.40;99.90;;;;;;5010838;28;19994;-69
2023/04/16 09:00:53;;;;;;;;;;;11.40;99.90;;;;;;5011491;28;20284;-70
2023/04/16 09:03:20;;;;;;;;;;;11.40;99.90;;;;;;4997235;28;19933;-71
2023/04/16 09:05:45;;;;;;;;;;;11.60;99.90;;;;;;5003876;28;19930;-71
2023/04/16 09:08:11;;;;;;;;;;;11.70;99.90;;;;;;5005414;28;19978;-71
2023/04/16 09:10:36;;;;;;;;;;;11.80;99.90;;;;;;5002563;28;20195;-71
2023/04/16 09:13:02;;;;;;;;;;;12.00;99.90;;;;;;5008037;28;20298;-70
2023/04/16 09:15:28;;;;;;;;;;;12.10;99.90;;;;;;5004334;28;20343;-70
2023/04/16 09:17:55;;;;;;;;;;;12.20;99.90;;;;;;5002675;28;19925;-70
2023/04/16 09:20:20;;;;;;;;;;;12.30;99.90;;;;;;5002732;28;20256;-70
2023/04/16 09:22:46;;;;;;;;;;;12.30;99.90;;;;;;5001556;28;19937;-71
2023/04/16 09:25:11;;;;;;;;;;;12.50;99.90;;;;;;5006386;28;19937;-70
2023/04/16 09:27:37;;;;;;;;;;;12.40;99.90;;;;;;4999937;28;19926;-70
2023/04/16 09:30:22;;;;;;;;;;;12.50;99.90;;;;;;5005358;28;19933;-68
2023/04/16 09:32:49;;;;;;;;;;;12.50;99.90;;;;;;4995194;28;19933;-69
2023/04/16 09:35:15;;;;;;;;;;;12.50;99.90;;;;;;5007823;28;20369;-68
2023/04/16 09:37:41;;;;;;;;;;;12.60;99.90;;;;;;5001710;28;19984;-68
2023/04/16 09:40:07;;;;;;;;;;;12.60;99.90;;;;;;5005123;28;19937;-70
2023/04/16 09:42:34;;;;;;;;;;;12.70;99.90;;;;;;5001754;28;19926;-67
2023/04/16 09:44:59;;;;;;;;;;;12.70;99.90;;;;;;5002563;28;19933;-68
2023/04/16 09:47:36;;;;;;;;;;;12.60;99.90;;;;;;5013590;28;19930;-68
2023/04/16 09:50:02;;;;;;;;;;;12.60;99.90;;;;;;5007824;28;19925;-69
2023/04/16 09:52:27;;;;;;;;;;;12.70;99.90;;;;;;5009597;28;19932;-68
2023/04/16 09:54:53;;;;;;;;;;;12.70;99.90;;;;;;5009018;28;20009;-69
2023/04/16 09:57:20;;;;;;;;;;;12.70;99.90;;;;;;5004425;28;20375;-69
2023/04/16 09:59:46;;;;;;;;;;;12.80;99.90;;;;;;5006560;28;19930;-69
2023/04/16 10:02:12;;;;;;;;;;;12.80;99.90;;;;;;5007913;28;19932;-69
2023/04/16 10:04:47;;;;;;;;;;;13.00;99.90;;;;;;5013735;28;19932;-69
2023/04/16 10:07:12;;;;;;;;;;;13.00;99.90;;;;;;5006960;28;19929;-69
2023/04/16 10:09:38;;;;;;;;;;;13.00;99.90;;;;;;5002295;28;19929;-69
2023/04/16 10:12:04;;;;;;;;;;;13.00;99.90;;;;;;5001206;28;20024;-70
2023/04/16 10:14:30;;;;;;;;;;;13.10;99.90;;;;;;5004182;28;20329;-70
2023/04/16 10:16:55;;;;;;;;;;;13.20;99.90;;;;;;5007528;28;19933;-70
2023/04/16 10:19:21;;;;;;;;;;;13.40;99.90;;;;;;5004762;28;19925;-69
2023/04/16 10:21:46;;;;;;;;;;;13.50;99.90;;;;;;5008219;28;20081;-68
2023/04/16 10:24:15;;;;;;;;;;;13.60;99.90;;;;;;5015927;28;19971;-69
2023/04/16 10:26:41;;;;;;;;;;;13.40;99.90;;;;;;4982188;28;19932;-70
2023/04/16 10:29:07;;;;;;;;;;;13.50;99.90;;;;;;5009819;28;20375;-70
2023/04/16 10:31:35;;;;;;;;;;;13.70;99.90;;;;;;5012974;28;20434;-70
2023/04/16 10:34:00;;;;;;;;;;;13.60;99.90;;;;;;5011827;28;19933;-70
2023/04/16 10:36:26;;;;;;;;;;;13.60;99.90;;;;;;5013457;28;20371;-69
2023/04/16 10:38:55;;;;;;;;;;;13.60;99.90;;;;;;5004894;28;20020;-70
2023/04/16 10:41:21;;;;;;;;;;;13.70;99.90;;;;;;5010733;28;19929;-69
2023/04/16 10:43:48;;;;;;;;;;;13.80;99.90;;;;;;5010121;28;19925;-68
2023/04/16 10:46:16;;;;;;;;;;;13.90;99.90;;;;;;5002046;28;19926;-70
2023/04/16 10:48:42;;;;;;;;;;;13.90;99.90;;;;;;5005389;28;19933;-69
2023/04/16 10:51:21;;;;;;;;;;;13.90;99.90;;;;;;5008331;28;20224;-69
2023/04/16 10:53:47;;;;;;;;;;;14.10;99.90;;;;;;5003914;28;19960;-69
2023/04/16 10:56:12;;;;;;;;;;;14.30;99.90;;;;;;5005560;28;19930;-69
2023/04/16 10:58:38;;;;;;;;;;;14.30;99.90;;;;;;5010567;28;19925;-69
2023/04/16 11:01:11;;;;;;;;;;;14.00;99.90;;;;;;5011303;28;19972;-69
2023/04/16 11:03:40;;;;;;;;;;;13.90;99.90;;;;;;5012382;28;19932;-69
2023/04/16 11:06:10;;;;;;;;;;;13.90;99.90;;;;;;5009663;28;19980;-69
2023/04/16 11:08:36;;;;;;;;;;;14.00;99.90;;;;;;5014243;28;19929;-69
2023/04/16 11:11:04;;;;;;;;;;;14.00;99.90;;;;;;5010954;28;19929;-69
2023/04/16 11:13:30;;;;;;;;;;;14.00;99.90;;;;;;5013318;28;20020;-68
2023/04/16 11:15:56;;;;;;;;;;;14.00;99.90;;;;;;5015509;28;19925;-70
2023/04/16 11:18:22;;;;;;;;;;;14.00;99.90;;;;;;5013300;28;19971;-71
2023/04/16 11:20:49;;;;;;;;;;;14.00;99.90;;;;;;5014775;28;19933;-69
2023/04/16 11:23:15;;;;;;;;;;;13.90;99.90;;;;;;5010215;28;20307;-71
2023/04/16 11:25:40;;;;;;;;;;;14.10;99.90;;;;;;5010165;28;20000;-68
2023/04/16 11:28:06;;;;;;;;;;;14.30;99.90;;;;;;5008875;28;19952;-68
2023/04/16 11:30:35;;;;;;;;;;;14.30;99.90;;;;;;5012298;28;19929;-68
2023/04/16 11:33:01;;;;;;;;;;;14.30;99.90;;;;;;5012398;28;19929;-68
2023/04/16 11:35:27;;;;;;;;;;;14.40;99.90;;;;;;5009900;28;20283;-69
2023/04/16 11:37:56;;;;;;;;;;;14.30;99.90;;;;;;5010521;28;19929;-68
2023/04/16 11:40:22;;;;;;;;;;;14.20;99.90;;;;;;5011439;28;19929;-68
2023/04/16 11:42:48;;;;;;;;;;;14.30;99.90;;;;;;5007809;28;19971;-68
2023/04/16 11:45:13;;;;;;;;;;;14.30;99.90;;;;;;5014101;28;19932;-69
2023/04/16 11:47:44;;;;;;;;;;;14.40;99.90;;;;;;5012300;28;19933;-69
2023/04/16 11:50:16;;;;;;;;;;;14.20;99.90;;;;;;5002727;28;20290;-69
2023/04/16 11:52:42;;;;;;;;;;;14.40;99.90;;;;;;5008251;28;20020;-69
2023/04/16 11:55:07;;;;;;;;;;;14.50;99.90;;;;;;5017472;28;20044;-69
2023/04/16 11:57:33;;;;;;;;;;;14.40;99.90;;;;;;5005322;28;20012;-70
2023/04/16 11:59:59;;;;;;;;;;;14.30;99.90;;;;;;5001122;28;20367;-69
2023/04/16 12:02:34;;;;;;;;;;;14.30;99.90;;;;;;5001052;28;19925;-70
2023/04/16 12:04:59;;;;;;;;;;;14.10;99.90;;;;;;5012409;28;20284;-68
2023/04/16 12:07:26;;;;;;;;;;;14.20;99.90;;;;;;5013478;28;19940;-69
2023/04/16 12:10:03;;;;;;;;;;;14.00;99.90;;;;;;5009123;28;19926;-69
2023/04/16 12:12:29;;;;;;;;;;;14.10;99.90;;;;;;5012328;28;19972;-69
2023/04/16 12:14:58;;;;;;;;;;;14.10;99.90;;;;;;5011524;28;20362;-70
2023/04/16 12:17:24;;;;;;;;;;;14.00;99.90;;;;;;5007014;28;19925;-69
2023/04/16 12:20:00;;;;;;;;;;;13.90;99.90;;;;;;5011522;28;19932;-68
2023/04/16 12:22:35;;;;;;;;;;;13.90;99.90;;;;;;5010371;28;19941;-69
2023/04/16 12:25:10;;;;;;;;;;;14.10;99.90;;;;;;4996368;28;19984;-69
2023/04/16 12:27:46;;;;;;;;;;;14.20;99.90;;;;;;5012075;28;20286;-69
2023/04/16 12:30:13;;;;;;;;;;;14.10;99.90;;;;;;5013963;28;19972;-68
2023/04/16 12:32:39;;;;;;;;;;;14.10;99.90;;;;;;4998395;28;20008;-68
2023/04/16 12:35:05;;;;;;;;;;;14.10;99.90;;;;;;5012672;28;19936;-69
2023/04/16 12:37:31;;;;;;;;;;;14.00;99.90;;;;;;5007836;28;19929;-69
2023/04/16 12:39:56;;;;;;;;;;;14.20;99.90;;;;;;5013124;28;19927;-69
2023/04/16 12:42:22;;;;;;;;;;;14.30;99.90;;;;;;5011990;28;19979;-69
2023/04/16 12:44:47;;;;;;;;;;;14.70;99.90;;;;;;5003798;28;19926;-69
2023/04/16 12:47:13;;;;;;;;;;;15.00;99.90;;;;;;5012660;28;20020;-70
2023/04/16 12:49:39;;;;;;;;;;;15.20;99.90;;;;;;5009952;28;19925;-70
2023/04/16 12:52:05;;;;;;;;;;;15.00;99.90;;;;;;5012233;28;19933;-71
2023/04/16 12:54:31;;;;;;;;;;;14.70;99.90;;;;;;5001370;28;19936;-70
2023/04/16 12:56:56;;;;;;;;;;;14.50;99.90;;;;;;5003092;28;19929;-69
2023/04/16 12:59:22;;;;;;;;;;;14.40;99.90;;;;;;5004641;28;19925;-70
2023/04/16 13:01:47;;;;;;;;;;;14.40;99.90;;;;;;5022120;28;19929;-70
2023/04/16 13:04:13;;;;;;;;;;;14.20;99.90;;;;;;5005160;28;20539;-69
2023/04/16 13:06:39;;;;;;;;;;;14.10;99.90;;;;;;5009263;28;19926;-68
2023/04/16 13:09:05;;;;;;;;;;;14.00;99.90;;;;;;4999843;28;19926;-69
2023/04/16 13:11:31;;;;;;;;;;;14.10;99.90;;;;;;5008012;28;19925;-70
2023/04/16 13:13:57;;;;;;;;;;;14.00;99.90;;;;;;5006635;28;20383;-68
2023/04/16 13:16:22;;;;;;;;;;;13.90;99.90;;;;;;5002954;28;19925;-69
2023/04/16 13:18:48;;;;;;;;;;;13.70;99.90;;;;;;5009749;28;19976;-69
2023/04/16 13:21:13;;;;;;;;;;;13.70;99.90;;;;;;5012292;28;20658;-70
2023/04/16 13:23:39;;;;;;;;;;;13.60;99.90;;;;;;5012278;28;20319;-70
2023/04/16 13:26:05;;;;;;;;;;;13.60;99.90;;;;;;5012384;28;20314;-70
2023/04/16 13:28:30;;;;;;;;;;;13.50;99.90;;;;;;5009827;28;20379;-69
2023/04/16 13:30:56;;;;;;;;;;;13.50;99.90;;;;;;5010889;28;19925;-69
2023/04/16 13:33:21;;;;;;;;;;;13.50;99.90;;;;;;5011124;28;20279;-69
2023/04/16 13:35:48;;;;;;;;;;;13.40;99.90;;;;;;5011970;28;20383;-70
2023/04/16 13:38:13;;;;;;;;;;;13.60;99.90;;;;;;5009915;28;19930;-69
2023/04/16 13:40:39;;;;;;;;;;;13.50;99.90;;;;;;5013044;28;19936;-69
2023/04/16 13:43:05;;;;;;;;;;;13.50;99.90;;;;;;5002908;28;20439;-69
2023/04/16 13:45:30;;;;;;;;;;;13.50;99.90;;;;;;5005911;28;20008;-69
2023/04/16 13:47:56;;;;;;;;;;;13.50;99.90;;;;;;5010116;28;19926;-69
2023/04/16 13:50:22;;;;;;;;;;;13.60;99.90;;;;;;5003019;28;20029;-69
2023/04/16 13:52:47;;;;;;;;;;;13.70;99.90;;;;;;5006536;28;20044;-69
2023/04/16 13:55:13;;;;;;;;;;;13.70;99.90;;;;;;5010150;28;20318;-70
2023/04/16 13:57:39;;;;;;;;;;;13.70;99.90;;;;;;5007287;28;20374;-69
2023/04/16 14:00:05;;;;;;;;;;;13.90;99.90;;;;;;5010327;28;19926;-69
2023/04/16 14:02:31;;;;;;;;;;;13.90;99.90;;;;;;5006530;28;20012;-68
2023/04/16 14:04:56;;;;;;;;;;;14.00;99.90;;;;;;5009983;28;20025;-69
2023/04/16 14:07:25;;;;;;;;;;;14.10;99.90;;;;;;4983224;28;20379;-70
2023/04/16 14:09:51;;;;;;;;;;;14.00;99.90;;;;;;5013036;28;20271;-69
2023/04/16 14:12:17;;;;;;;;;;;14.00;99.90;;;;;;5010926;28;19979;-69
2023/04/16 14:14:42;;;;;;;;;;;14.00;99.90;;;;;;5011247;28;19932;-69
2023/04/16 14:17:08;;;;;;;;;;;13.90;99.90;;;;;;5009726;28;19932;-70